sensor_id;sensor_type;location;lat;lon;timestamp;P1;durP1;ratioP1;P2;durP2;ratioP2
2408;SDS011;8463;48.094;7.970;2022-09-03T00:00:25;2.00;;;1.90;;
2408;SDS011;8463;48.094;7.970;2022-09-03T00:06:11;4.07;;;2.57;;
2408;SDS011;8463;48.094;7.970;2022-09-03T00:08:43;2.70;;;2.03;;
2408;SDS011;8463;48.094;7.970;2022-09-03T00:11:23;1.90;;;1.80;;
2408;SDS011;8463;48.094;7.970;2022-09-03T00:14:11;3.63;;;1.97;;
2408;SDS011;8463;48.094;7.970;2022-09-03T00:17:00;2.73;;;2.07;;
2408;SDS011;8463;48.094;7.970;2022-09-03T00:19:33;1.80;;;1.40;;
2408;SDS011;8463;48.094;7.970;2022-09-03T00:22:22;2.10;;;1.93;;
2408;SDS011;8463;48.094;7.970;2022-09-03T00:24:52;1.97;;;1.87;;
2408;SDS011;8463;48.094;7.970;2022-09-03T00:27:21;2.13;;;1.63;;
2408;SDS011;8463;48.094;7.970;2022-09-03T00:29:49;2.40;;;2.20;;
2408;SDS011;8463;48.094;7.970;2022-09-03T00:32:26;2.13;;;1.73;;
2408;SDS011;8463;48.094;7.970;2022-09-03T00:35:02;2.43;;;1.83;;
2408;SDS011;8463;48.094;7.970;2022-09-03T00:37:31;2.50;;;2.30;;
2408;SDS011;8463;48.094;7.970;2022-09-03T00:39:58;1.87;;;1.77;;
2408;SDS011;8463;48.094;7.970;2022-09-03T00:42:34;4.30;;;1.87;;
2408;SDS011;8463;48.094;7.970;2022-09-03T00:45:26;2.73;;;1.93;;
2408;SDS011;8463;48.094;7.970;2022-09-03T00:48:09;2.37;;;1.73;;
2408;SDS011;8463;48.094;7.970;2022-09-03T00:53:19;2.10;;;1.90;;
2408;SDS011;8463;48.094;7.970;2022-09-03T01:01:19;1.70;;;1.57;;
2408;SDS011;8463;48.094;7.970;2022-09-03T01:03:53;2.30;;;2.10;;
2408;SDS011;8463;48.094;7.970;2022-09-03T01:06:49;2.87;;;1.60;;
2408;SDS011;8463;48.094;7.970;2022-09-03T01:09:37;2.40;;;2.20;;
2408;SDS011;8463;48.094;7.970;2022-09-03T01:12:20;2.80;;;2.13;;
2408;SDS011;8463;48.094;7.970;2022-09-03T01:26:19;2.63;;;2.43;;
2408;SDS011;8463;48.094;7.970;2022-09-03T01:47:17;5.97;;;3.10;;
2408;SDS011;8463;48.094;7.970;2022-09-03T01:49:52;4.67;;;2.70;;
2408;SDS011;8463;48.094;7.970;2022-09-03T01:57:55;4.47;;;2.87;;
2408;SDS011;8463;48.094;7.970;2022-09-03T02:00:26;2.70;;;2.40;;
2408;SDS011;8463;48.094;7.970;2022-09-03T02:02:55;3.00;;;2.80;;
2408;SDS011;8463;48.094;7.970;2022-09-03T02:05:29;2.67;;;2.40;;
2408;SDS011;8463;48.094;7.970;2022-09-03T02:08:03;3.90;;;2.70;;
2408;SDS011;8463;48.094;7.970;2022-09-03T02:10:31;2.87;;;2.67;;
2408;SDS011;8463;48.094;7.970;2022-09-03T02:13:20;5.10;;;3.20;;
2408;SDS011;8463;48.094;7.970;2022-09-03T02:15:48;2.67;;;2.47;;
2408;SDS011;8463;48.094;7.970;2022-09-03T02:18:17;3.47;;;2.67;;
2408;SDS011;8463;48.094;7.970;2022-09-03T02:20:46;3.37;;;3.07;;
2408;SDS011;8463;48.094;7.970;2022-09-03T02:23:14;3.80;;;3.10;;
2408;SDS011;8463;48.094;7.970;2022-09-03T02:25:51;2.80;;;2.50;;
2408;SDS011;8463;48.094;7.970;2022-09-03T02:28:19;3.30;;;2.90;;
2408;SDS011;8463;48.094;7.970;2022-09-03T02:30:46;3.80;;;3.30;;
2408;SDS011;8463;48.094;7.970;2022-09-03T02:33:12;4.20;;;3.80;;
2408;SDS011;8463;48.094;7.970;2022-09-03T02:35:39;3.47;;;3.07;;
2408;SDS011;8463;48.094;7.970;2022-09-03T02:38:12;2.83;;;2.63;;
2408;SDS011;8463;48.094;7.970;2022-09-03T02:40:42;3.00;;;2.70;;
2408;SDS011;8463;48.094;7.970;2022-09-03T02:43:10;3.33;;;3.03;;
2408;SDS011;8463;48.094;7.970;2022-09-03T02:45:39;2.70;;;2.50;;
2408;SDS011;8463;48.094;7.970;2022-09-03T02:48:10;2.93;;;2.73;;
2408;SDS011;8463;48.094;7.970;2022-09-03T02:50:40;2.63;;;2.43;;
2408;SDS011;8463;48.094;7.970;2022-09-03T02:53:06;3.20;;;2.73;;
2408;SDS011;8463;48.094;7.970;2022-09-03T02:55:32;2.70;;;2.50;;
2408;SDS011;8463;48.094;7.970;2022-09-03T02:57:58;3.67;;;2.80;;
2408;SDS011;8463;48.094;7.970;2022-09-03T03:00:24;3.30;;;3.10;;
2408;SDS011;8463;48.094;7.970;2022-09-03T03:02:53;4.00;;;2.97;;
2408;SDS011;8463;48.094;7.970;2022-09-03T03:05:30;3.80;;;3.50;;
2408;SDS011;8463;48.094;7.970;2022-09-03T03:08:08;3.00;;;2.80;;
2408;SDS011;8463;48.094;7.970;2022-09-03T03:10:34;3.30;;;3.00;;
2408;SDS011;8463;48.094;7.970;2022-09-03T03:12:59;3.27;;;2.90;;
2408;SDS011;8463;48.094;7.970;2022-09-03T03:15:25;3.23;;;2.93;;
2408;SDS011;8463;48.094;7.970;2022-09-03T03:17:54;3.30;;;3.00;;
2408;SDS011;8463;48.094;7.970;2022-09-03T03:20:21;2.87;;;2.67;;
2408;SDS011;8463;48.094;7.970;2022-09-03T03:22:47;2.80;;;2.60;;
2408;SDS011;8463;48.094;7.970;2022-09-03T03:25:12;2.93;;;2.73;;
2408;SDS011;8463;48.094;7.970;2022-09-03T03:27:38;2.90;;;2.57;;
2408;SDS011;8463;48.094;7.970;2022-09-03T03:30:08;3.30;;;3.00;;
2408;SDS011;8463;48.094;7.970;2022-09-03T03:32:35;3.53;;;3.23;;
2408;SDS011;8463;48.094;7.970;2022-09-03T03:35:01;2.70;;;2.50;;
2408;SDS011;8463;48.094;7.970;2022-09-03T03:37:29;3.93;;;3.00;;
2408;SDS011;8463;48.094;7.970;2022-09-03T03:39:55;3.63;;;3.10;;
2408;SDS011;8463;48.094;7.970;2022-09-03T03:42:20;3.50;;;3.20;;
2408;SDS011;8463;48.094;7.970;2022-09-03T03:44:46;3.50;;;3.20;;
2408;SDS011;8463;48.094;7.970;2022-09-03T03:47:12;3.83;;;2.67;;
2408;SDS011;8463;48.094;7.970;2022-09-03T03:49:40;2.70;;;2.50;;
2408;SDS011;8463;48.094;7.970;2022-09-03T03:52:06;2.97;;;2.67;;
2408;SDS011;8463;48.094;7.970;2022-09-03T03:54:32;3.10;;;2.70;;
2408;SDS011;8463;48.094;7.970;2022-09-03T03:56:58;2.87;;;2.67;;
2408;SDS011;8463;48.094;7.970;2022-09-03T03:59:24;5.30;;;2.97;;
2408;SDS011;8463;48.094;7.970;2022-09-03T04:01:49;3.80;;;3.40;;
2408;SDS011;8463;48.094;7.970;2022-09-03T04:04:15;2.77;;;2.57;;
2408;SDS011;8463;48.094;7.970;2022-09-03T04:06:41;3.60;;;3.30;;
2408;SDS011;8463;48.094;7.970;2022-09-03T04:09:07;2.33;;;2.13;;
2408;SDS011;8463;48.094;7.970;2022-09-03T04:11:33;2.77;;;2.53;;
2408;SDS011;8463;48.094;7.970;2022-09-03T04:13:58;3.33;;;2.77;;
2408;SDS011;8463;48.094;7.970;2022-09-03T04:16:26;3.80;;;3.13;;
2408;SDS011;8463;48.094;7.970;2022-09-03T04:18:53;5.60;;;2.90;;
2408;SDS011;8463;48.094;7.970;2022-09-03T04:21:20;4.00;;;3.37;;
2408;SDS011;8463;48.094;7.970;2022-09-03T04:23:48;3.33;;;3.03;;
2408;SDS011;8463;48.094;7.970;2022-09-03T04:26:16;3.70;;;3.30;;
2408;SDS011;8463;48.094;7.970;2022-09-03T04:28:43;3.47;;;3.13;;
2408;SDS011;8463;48.094;7.970;2022-09-03T04:31:10;4.23;;;3.63;;
2408;SDS011;8463;48.094;7.970;2022-09-03T04:33:36;3.30;;;3.03;;
2408;SDS011;8463;48.094;7.970;2022-09-03T04:36:04;3.30;;;2.70;;
2408;SDS011;8463;48.094;7.970;2022-09-03T04:38:35;3.00;;;2.70;;
2408;SDS011;8463;48.094;7.970;2022-09-03T04:41:03;2.97;;;2.77;;
2408;SDS011;8463;48.094;7.970;2022-09-03T04:43:29;3.67;;;3.13;;
2408;SDS011;8463;48.094;7.970;2022-09-03T04:45:59;3.13;;;2.90;;
2408;SDS011;8463;48.094;7.970;2022-09-03T04:48:26;4.80;;;3.30;;
2408;SDS011;8463;48.094;7.970;2022-09-03T04:50:53;3.47;;;3.17;;
2408;SDS011;8463;48.094;7.970;2022-09-03T04:53:19;3.87;;;3.53;;
2408;SDS011;8463;48.094;7.970;2022-09-03T04:55:46;4.33;;;3.60;;
2408;SDS011;8463;48.094;7.970;2022-09-03T04:58:12;3.50;;;3.30;;
2408;SDS011;8463;48.094;7.970;2022-09-03T05:00:38;3.87;;;3.57;;
2408;SDS011;8463;48.094;7.970;2022-09-03T05:03:04;4.33;;;3.27;;
2408;SDS011;8463;48.094;7.970;2022-09-03T05:05:30;3.60;;;3.30;;
2408;SDS011;8463;48.094;7.970;2022-09-03T05:07:57;3.87;;;3.57;;
2408;SDS011;8463;48.094;7.970;2022-09-03T05:10:26;3.43;;;3.13;;
2408;SDS011;8463;48.094;7.970;2022-09-03T05:12:59;4.63;;;4.17;;
2408;SDS011;8463;48.094;7.970;2022-09-03T05:15:27;4.80;;;3.33;;
2408;SDS011;8463;48.094;7.970;2022-09-03T05:17:57;4.40;;;3.40;;
2408;SDS011;8463;48.094;7.970;2022-09-03T05:20:23;3.57;;;3.27;;
2408;SDS011;8463;48.094;7.970;2022-09-03T05:22:50;4.17;;;3.17;;
2408;SDS011;8463;48.094;7.970;2022-09-03T05:25:16;4.73;;;3.67;;
2408;SDS011;8463;48.094;7.970;2022-09-03T05:27:42;3.60;;;3.30;;
2408;SDS011;8463;48.094;7.970;2022-09-03T05:30:07;3.70;;;3.40;;
2408;SDS011;8463;48.094;7.970;2022-09-03T05:32:33;3.60;;;3.30;;
2408;SDS011;8463;48.094;7.970;2022-09-03T05:34:59;3.53;;;3.30;;
2408;SDS011;8463;48.094;7.970;2022-09-03T05:37:25;3.93;;;3.60;;
2408;SDS011;8463;48.094;7.970;2022-09-03T05:39:51;3.10;;;2.67;;
2408;SDS011;8463;48.094;7.970;2022-09-03T05:42:17;4.23;;;3.83;;
2408;SDS011;8463;48.094;7.970;2022-09-03T05:44:43;3.77;;;3.47;;
2408;SDS011;8463;48.094;7.970;2022-09-03T05:47:09;3.50;;;2.97;;
2408;SDS011;8463;48.094;7.970;2022-09-03T05:49:34;3.73;;;3.30;;
2408;SDS011;8463;48.094;7.970;2022-09-03T05:52:01;4.80;;;4.10;;
2408;SDS011;8463;48.094;7.970;2022-09-03T05:54:27;3.53;;;3.20;;
2408;SDS011;8463;48.094;7.970;2022-09-03T05:56:52;3.63;;;3.33;;
2408;SDS011;8463;48.094;7.970;2022-09-03T05:59:18;3.83;;;3.53;;
2408;SDS011;8463;48.094;7.970;2022-09-03T06:01:44;3.50;;;3.20;;
2408;SDS011;8463;48.094;7.970;2022-09-03T06:04:14;4.20;;;3.53;;
2408;SDS011;8463;48.094;7.970;2022-09-03T06:06:44;3.60;;;3.30;;
2408;SDS011;8463;48.094;7.970;2022-09-03T06:09:17;3.70;;;3.20;;
2408;SDS011;8463;48.094;7.970;2022-09-03T06:11:45;3.33;;;3.03;;
2408;SDS011;8463;48.094;7.970;2022-09-03T06:14:12;3.50;;;3.20;;
2408;SDS011;8463;48.094;7.970;2022-09-03T06:16:42;5.07;;;4.43;;
2408;SDS011;8463;48.094;7.970;2022-09-03T06:19:08;3.90;;;3.60;;
2408;SDS011;8463;48.094;7.970;2022-09-03T06:21:35;3.43;;;3.13;;
2408;SDS011;8463;48.094;7.970;2022-09-03T06:24:04;4.93;;;3.30;;
2408;SDS011;8463;48.094;7.970;2022-09-03T06:26:30;4.13;;;3.80;;
2408;SDS011;8463;48.094;7.970;2022-09-03T06:28:56;4.00;;;3.60;;
2408;SDS011;8463;48.094;7.970;2022-09-03T06:31:22;3.43;;;3.13;;
2408;SDS011;8463;48.094;7.970;2022-09-03T06:33:48;3.00;;;2.80;;
2408;SDS011;8463;48.094;7.970;2022-09-03T06:36:15;3.17;;;2.97;;
2408;SDS011;8463;48.094;7.970;2022-09-03T06:38:41;3.20;;;2.90;;
2408;SDS011;8463;48.094;7.970;2022-09-03T06:41:09;4.37;;;3.23;;
2408;SDS011;8463;48.094;7.970;2022-09-03T06:43:45;4.73;;;3.57;;
2408;SDS011;8463;48.094;7.970;2022-09-03T06:46:12;3.27;;;2.97;;
2408;SDS011;8463;48.094;7.970;2022-09-03T06:48:40;3.63;;;3.33;;
2408;SDS011;8463;48.094;7.970;2022-09-03T06:51:07;6.70;;;3.23;;
2408;SDS011;8463;48.094;7.970;2022-09-03T06:53:34;3.57;;;3.27;;
2408;SDS011;8463;48.094;7.970;2022-09-03T06:56:03;3.90;;;3.60;;
2408;SDS011;8463;48.094;7.970;2022-09-03T06:58:33;4.07;;;3.77;;
2408;SDS011;8463;48.094;7.970;2022-09-03T07:01:05;4.40;;;4.00;;
2408;SDS011;8463;48.094;7.970;2022-09-03T07:03:32;4.30;;;3.90;;
2408;SDS011;8463;48.094;7.970;2022-09-03T07:06:19;4.10;;;3.70;;
2408;SDS011;8463;48.094;7.970;2022-09-03T07:08:45;3.90;;;3.50;;
2408;SDS011;8463;48.094;7.970;2022-09-03T07:11:12;3.50;;;3.20;;
2408;SDS011;8463;48.094;7.970;2022-09-03T07:13:40;3.57;;;3.27;;
2408;SDS011;8463;48.094;7.970;2022-09-03T07:16:09;3.50;;;3.20;;
2408;SDS011;8463;48.094;7.970;2022-09-03T07:18:37;2.97;;;2.77;;
2408;SDS011;8463;48.094;7.970;2022-09-03T07:21:05;3.83;;;3.53;;
2408;SDS011;8463;48.094;7.970;2022-09-03T07:23:33;4.33;;;3.57;;
2408;SDS011;8463;48.094;7.970;2022-09-03T07:26:02;3.53;;;3.23;;
2408;SDS011;8463;48.094;7.970;2022-09-03T07:28:29;4.17;;;3.37;;
2408;SDS011;8463;48.094;7.970;2022-09-03T07:31:05;4.30;;;3.23;;
2408;SDS011;8463;48.094;7.970;2022-09-03T07:33:37;3.20;;;2.90;;
2408;SDS011;8463;48.094;7.970;2022-09-03T07:38:34;3.40;;;3.10;;
2408;SDS011;8463;48.094;7.970;2022-09-03T07:41:02;3.43;;;3.13;;
2408;SDS011;8463;48.094;7.970;2022-09-03T07:43:32;2.83;;;2.63;;
2408;SDS011;8463;48.094;7.970;2022-09-03T07:45:59;2.90;;;2.60;;
2408;SDS011;8463;48.094;7.970;2022-09-03T07:48:25;2.60;;;2.40;;
2408;SDS011;8463;48.094;7.970;2022-09-03T07:50:51;3.20;;;2.90;;
2408;SDS011;8463;48.094;7.970;2022-09-03T07:53:23;2.50;;;2.30;;
2408;SDS011;8463;48.094;7.970;2022-09-03T07:55:49;3.43;;;3.13;;
2408;SDS011;8463;48.094;7.970;2022-09-03T07:58:15;3.83;;;3.53;;
2408;SDS011;8463;48.094;7.970;2022-09-03T08:00:41;5.03;;;3.13;;
2408;SDS011;8463;48.094;7.970;2022-09-03T08:03:07;4.30;;;2.87;;
2408;SDS011;8463;48.094;7.970;2022-09-03T08:05:36;3.40;;;3.10;;
2408;SDS011;8463;48.094;7.970;2022-09-03T08:08:02;2.40;;;2.20;;
2408;SDS011;8463;48.094;7.970;2022-09-03T08:10:29;2.87;;;2.40;;
2408;SDS011;8463;48.094;7.970;2022-09-03T08:12:56;2.80;;;2.60;;
2408;SDS011;8463;48.094;7.970;2022-09-03T08:15:23;2.90;;;2.50;;
2408;SDS011;8463;48.094;7.970;2022-09-03T08:17:50;4.40;;;3.70;;
2408;SDS011;8463;48.094;7.970;2022-09-03T08:20:16;3.50;;;2.93;;
2408;SDS011;8463;48.094;7.970;2022-09-03T08:22:42;3.87;;;3.47;;
2408;SDS011;8463;48.094;7.970;2022-09-03T08:25:07;2.60;;;2.37;;
2408;SDS011;8463;48.094;7.970;2022-09-03T08:27:33;2.60;;;2.30;;
2408;SDS011;8463;48.094;7.970;2022-09-03T08:29:59;2.23;;;2.03;;
2408;SDS011;8463;48.094;7.970;2022-09-03T08:32:25;2.40;;;2.20;;
2408;SDS011;8463;48.094;7.970;2022-09-03T08:34:51;2.10;;;1.90;;
2408;SDS011;8463;48.094;7.970;2022-09-03T08:37:17;3.30;;;2.00;;
2408;SDS011;8463;48.094;7.970;2022-09-03T08:39:43;2.07;;;1.93;;
2408;SDS011;8463;48.094;7.970;2022-09-03T08:44:48;2.33;;;2.13;;
2408;SDS011;8463;48.094;7.970;2022-09-03T08:47:32;2.40;;;2.20;;
2408;SDS011;8463;48.094;7.970;2022-09-03T08:52:49;2.20;;;2.00;;
2408;SDS011;8463;48.094;7.970;2022-09-03T09:09:45;2.50;;;2.30;;
2408;SDS011;8463;48.094;7.970;2022-09-03T09:15:08;2.40;;;2.20;;
2408;SDS011;8463;48.094;7.970;2022-09-03T09:23:49;2.47;;;2.27;;
2408;SDS011;8463;48.094;7.970;2022-09-03T09:26:13;2.67;;;2.30;;
2408;SDS011;8463;48.094;7.970;2022-09-03T09:28:41;3.03;;;2.40;;
2408;SDS011;8463;48.094;7.970;2022-09-03T09:31:10;2.90;;;1.70;;
2408;SDS011;8463;48.094;7.970;2022-09-03T09:33:40;2.00;;;1.90;;
2408;SDS011;8463;48.094;7.970;2022-09-03T09:36:10;2.83;;;2.40;;
2408;SDS011;8463;48.094;7.970;2022-09-03T09:38:39;2.40;;;2.20;;
2408;SDS011;8463;48.094;7.970;2022-09-03T09:43:37;3.73;;;2.03;;
2408;SDS011;8463;48.094;7.970;2022-09-03T09:46:14;2.40;;;1.93;;
2408;SDS011;8463;48.094;7.970;2022-09-03T09:48:51;1.90;;;1.63;;
2408;SDS011;8463;48.094;7.970;2022-09-03T09:51:23;2.40;;;2.20;;
2408;SDS011;8463;48.094;7.970;2022-09-03T09:54:00;2.00;;;1.90;;
2408;SDS011;8463;48.094;7.970;2022-09-03T09:56:44;2.20;;;2.00;;
2408;SDS011;8463;48.094;7.970;2022-09-03T09:59:11;2.43;;;2.20;;
2408;SDS011;8463;48.094;7.970;2022-09-03T10:01:42;4.40;;;2.87;;
2408;SDS011;8463;48.094;7.970;2022-09-03T10:04:24;2.13;;;1.60;;
2408;SDS011;8463;48.094;7.970;2022-09-03T10:06:55;3.17;;;2.87;;
2408;SDS011;8463;48.094;7.970;2022-09-03T10:09:43;3.23;;;2.20;;
2408;SDS011;8463;48.094;7.970;2022-09-03T10:12:21;6.10;;;2.63;;
2408;SDS011;8463;48.094;7.970;2022-09-03T10:14:54;2.70;;;2.23;;
2408;SDS011;8463;48.094;7.970;2022-09-03T10:23:06;3.10;;;2.40;;
2408;SDS011;8463;48.094;7.970;2022-09-03T10:28:16;4.00;;;2.60;;
2408;SDS011;8463;48.094;7.970;2022-09-03T10:40:24;2.03;;;1.37;;
2408;SDS011;8463;48.094;7.970;2022-09-03T10:50:57;4.30;;;1.90;;
2408;SDS011;8463;48.094;7.970;2022-09-03T10:53:32;2.43;;;2.10;;
2408;SDS011;8463;48.094;7.970;2022-09-03T10:56:15;2.97;;;1.47;;
2408;SDS011;8463;48.094;7.970;2022-09-03T11:01:51;2.30;;;2.00;;
2408;SDS011;8463;48.094;7.970;2022-09-03T11:04:30;1.73;;;1.63;;
2408;SDS011;8463;48.094;7.970;2022-09-03T11:07:02;3.70;;;1.97;;
2408;SDS011;8463;48.094;7.970;2022-09-03T11:12:03;1.30;;;1.20;;
2408;SDS011;8463;48.094;7.970;2022-09-03T11:14:39;1.30;;;1.20;;
2408;SDS011;8463;48.094;7.970;2022-09-03T11:17:20;1.20;;;1.10;;
2408;SDS011;8463;48.094;7.970;2022-09-03T11:19:50;1.53;;;1.27;;
2408;SDS011;8463;48.094;7.970;2022-09-03T11:22:20;1.50;;;1.07;;
2408;SDS011;8463;48.094;7.970;2022-09-03T11:24:49;1.60;;;1.20;;
2408;SDS011;8463;48.094;7.970;2022-09-03T11:29:55;1.30;;;1.20;;
2408;SDS011;8463;48.094;7.970;2022-09-03T11:32:50;1.30;;;1.10;;
2408;SDS011;8463;48.094;7.970;2022-09-03T11:35:39;1.73;;;1.27;;
2408;SDS011;8463;48.094;7.970;2022-09-03T11:40:56;1.37;;;1.27;;
2408;SDS011;8463;48.094;7.970;2022-09-03T11:45:59;1.37;;;1.27;;
2408;SDS011;8463;48.094;7.970;2022-09-03T11:48:53;1.47;;;1.17;;
2408;SDS011;8463;48.094;7.970;2022-09-03T11:54:01;1.47;;;1.10;;
2408;SDS011;8463;48.094;7.970;2022-09-03T11:56:30;1.53;;;1.43;;
2408;SDS011;8463;48.094;7.970;2022-09-03T11:59:02;2.30;;;1.40;;
2408;SDS011;8463;48.094;7.970;2022-09-03T12:04:23;1.40;;;1.30;;
2408;SDS011;8463;48.094;7.970;2022-09-03T12:09:46;1.20;;;1.10;;
2408;SDS011;8463;48.094;7.970;2022-09-03T12:15:03;2.20;;;1.00;;
2408;SDS011;8463;48.094;7.970;2022-09-03T12:17:47;1.63;;;1.10;;
2408;SDS011;8463;48.094;7.970;2022-09-03T12:20:39;1.80;;;1.63;;
2408;SDS011;8463;48.094;7.970;2022-09-03T12:23:06;1.10;;;1.00;;
2408;SDS011;8463;48.094;7.970;2022-09-03T12:25:35;1.07;;;1.00;;
2408;SDS011;8463;48.094;7.970;2022-09-03T12:28:11;1.30;;;1.20;;
2408;SDS011;8463;48.094;7.970;2022-09-03T12:30:37;3.60;;;1.10;;
2408;SDS011;8463;48.094;7.970;2022-09-03T12:33:07;3.17;;;1.37;;
2408;SDS011;8463;48.094;7.970;2022-09-03T12:35:34;1.13;;;1.03;;
2408;SDS011;8463;48.094;7.970;2022-09-03T12:38:00;1.60;;;1.50;;
2408;SDS011;8463;48.094;7.970;2022-09-03T12:40:27;1.83;;;1.00;;
2408;SDS011;8463;48.094;7.970;2022-09-03T12:42:54;1.77;;;1.03;;
2408;SDS011;8463;48.094;7.970;2022-09-03T12:45:23;1.00;;;0.90;;
2408;SDS011;8463;48.094;7.970;2022-09-03T12:47:50;1.63;;;0.90;;
2408;SDS011;8463;48.094;7.970;2022-09-03T12:50:20;1.07;;;0.97;;
2408;SDS011;8463;48.094;7.970;2022-09-03T12:52:55;1.37;;;1.00;;
2408;SDS011;8463;48.094;7.970;2022-09-03T12:55:34;1.10;;;0.80;;
2408;SDS011;8463;48.094;7.970;2022-09-03T13:00:39;0.93;;;0.83;;
2408;SDS011;8463;48.094;7.970;2022-09-03T13:03:16;0.67;;;0.67;;
2408;SDS011;8463;48.094;7.970;2022-09-03T13:05:58;1.00;;;0.83;;
2408;SDS011;8463;48.094;7.970;2022-09-03T13:08:28;1.13;;;0.70;;
2408;SDS011;8463;48.094;7.970;2022-09-03T13:10:58;1.27;;;1.17;;
2408;SDS011;8463;48.094;7.970;2022-09-03T13:13:30;1.00;;;0.73;;
2408;SDS011;8463;48.094;7.970;2022-09-03T13:27:03;1.83;;;1.00;;
2408;SDS011;8463;48.094;7.970;2022-09-03T13:35:26;0.87;;;0.80;;
2408;SDS011;8463;48.094;7.970;2022-09-03T13:38:06;1.50;;;0.80;;
2408;SDS011;8463;48.094;7.970;2022-09-03T13:43:39;1.00;;;0.90;;
2408;SDS011;8463;48.094;7.970;2022-09-03T13:46:09;0.90;;;0.60;;
2408;SDS011;8463;48.094;7.970;2022-09-03T13:48:42;0.60;;;0.57;;
2408;SDS011;8463;48.094;7.970;2022-09-03T13:51:28;2.60;;;1.03;;
2408;SDS011;8463;48.094;7.970;2022-09-03T13:54:18;2.33;;;1.07;;
2408;SDS011;8463;48.094;7.970;2022-09-03T13:56:58;0.60;;;0.50;;
2408;SDS011;8463;48.094;7.970;2022-09-03T14:02:17;1.07;;;0.97;;
2408;SDS011;8463;48.094;7.970;2022-09-03T14:04:53;1.10;;;0.80;;
2408;SDS011;8463;48.094;7.970;2022-09-03T14:15:56;3.53;;;0.97;;
2408;SDS011;8463;48.094;7.970;2022-09-03T14:21:34;0.77;;;0.70;;
2408;SDS011;8463;48.094;7.970;2022-09-03T14:27:23;0.63;;;0.60;;
2408;SDS011;8463;48.094;7.970;2022-09-03T14:30:00;0.80;;;0.80;;
2408;SDS011;8463;48.094;7.970;2022-09-03T14:32:29;1.23;;;0.70;;
2408;SDS011;8463;48.094;7.970;2022-09-03T14:35:13;1.10;;;1.00;;
2408;SDS011;8463;48.094;7.970;2022-09-03T14:40:44;1.50;;;0.90;;
2408;SDS011;8463;48.094;7.970;2022-09-03T14:54:46;0.80;;;0.70;;
2408;SDS011;8463;48.094;7.970;2022-09-03T14:57:52;2.03;;;0.97;;
2408;SDS011;8463;48.094;7.970;2022-09-03T15:00:20;0.83;;;0.83;;
2408;SDS011;8463;48.094;7.970;2022-09-03T15:03:02;2.20;;;1.10;;
2408;SDS011;8463;48.094;7.970;2022-09-03T15:05:46;1.13;;;0.80;;
2408;SDS011;8463;48.094;7.970;2022-09-03T15:11:23;1.10;;;1.00;;
2408;SDS011;8463;48.094;7.970;2022-09-03T15:16:35;0.90;;;0.83;;
2408;SDS011;8463;48.094;7.970;2022-09-03T15:21:38;1.30;;;1.00;;
2408;SDS011;8463;48.094;7.970;2022-09-03T15:24:31;1.23;;;0.93;;
2408;SDS011;8463;48.094;7.970;2022-09-03T15:27:22;2.03;;;1.10;;
2408;SDS011;8463;48.094;7.970;2022-09-03T15:30:18;0.90;;;0.90;;
2408;SDS011;8463;48.094;7.970;2022-09-03T15:35:48;0.80;;;0.80;;
2408;SDS011;8463;48.094;7.970;2022-09-03T15:43:50;1.20;;;1.10;;
2408;SDS011;8463;48.094;7.970;2022-09-03T15:55:01;1.20;;;1.10;;
2408;SDS011;8463;48.094;7.970;2022-09-03T15:57:53;1.00;;;0.90;;
2408;SDS011;8463;48.094;7.970;2022-09-03T16:00:33;4.00;;;1.33;;
2408;SDS011;8463;48.094;7.970;2022-09-03T16:03:16;1.20;;;1.03;;
2408;SDS011;8463;48.094;7.970;2022-09-03T16:05:47;1.33;;;1.00;;
2408;SDS011;8463;48.094;7.970;2022-09-03T16:22:00;2.53;;;1.47;;
2408;SDS011;8463;48.094;7.970;2022-09-03T16:27:34;3.47;;;1.63;;
2408;SDS011;8463;48.094;7.970;2022-09-03T16:35:29;1.40;;;1.30;;
2408;SDS011;8463;48.094;7.970;2022-09-03T16:46:24;4.03;;;2.13;;
2408;SDS011;8463;48.094;7.970;2022-09-03T16:49:27;1.90;;;1.37;;
2408;SDS011;8463;48.094;7.970;2022-09-03T17:00:16;1.40;;;1.30;;
2408;SDS011;8463;48.094;7.970;2022-09-03T17:02:56;2.53;;;1.60;;
2408;SDS011;8463;48.094;7.970;2022-09-03T17:11:36;7.07;;;1.60;;
2408;SDS011;8463;48.094;7.970;2022-09-03T17:19:56;2.90;;;1.50;;
2408;SDS011;8463;48.094;7.970;2022-09-03T17:23:21;1.83;;;1.40;;
2408;SDS011;8463;48.094;7.970;2022-09-03T17:37:28;1.30;;;1.20;;
2408;SDS011;8463;48.094;7.970;2022-09-03T17:40:25;2.70;;;1.97;;
2408;SDS011;8463;48.094;7.970;2022-09-03T17:46:02;1.70;;;1.60;;
2408;SDS011;8463;48.094;7.970;2022-09-03T17:48:52;1.60;;;1.40;;
2408;SDS011;8463;48.094;7.970;2022-09-03T17:51:28;3.40;;;1.53;;
2408;SDS011;8463;48.094;7.970;2022-09-03T17:54:11;1.70;;;1.60;;
2408;SDS011;8463;48.094;7.970;2022-09-03T17:56:50;3.77;;;1.90;;
2408;SDS011;8463;48.094;7.970;2022-09-03T17:59:21;2.13;;;1.77;;
2408;SDS011;8463;48.094;7.970;2022-09-03T18:01:53;3.50;;;1.87;;
2408;SDS011;8463;48.094;7.970;2022-09-03T18:04:37;4.20;;;1.80;;
2408;SDS011;8463;48.094;7.970;2022-09-03T18:13:17;1.60;;;1.50;;
2408;SDS011;8463;48.094;7.970;2022-09-03T18:15:58;1.50;;;1.37;;
2408;SDS011;8463;48.094;7.970;2022-09-03T18:18:36;2.23;;;2.03;;
2408;SDS011;8463;48.094;7.970;2022-09-03T18:21:21;1.70;;;1.60;;
2408;SDS011;8463;48.094;7.970;2022-09-03T18:27:00;2.73;;;1.90;;
2408;SDS011;8463;48.094;7.970;2022-09-03T18:29:54;1.90;;;1.70;;
2408;SDS011;8463;48.094;7.970;2022-09-03T18:32:42;2.00;;;1.80;;
2408;SDS011;8463;48.094;7.970;2022-09-03T18:35:28;1.60;;;1.50;;
2408;SDS011;8463;48.094;7.970;2022-09-03T18:38:13;2.00;;;1.67;;
2408;SDS011;8463;48.094;7.970;2022-09-03T18:43:48;2.40;;;2.20;;
2408;SDS011;8463;48.094;7.970;2022-09-03T18:46:57;2.00;;;1.90;;
2408;SDS011;8463;48.094;7.970;2022-09-03T18:50:25;1.97;;;1.87;;
2408;SDS011;8463;48.094;7.970;2022-09-03T18:56:14;2.23;;;1.80;;
2408;SDS011;8463;48.094;7.970;2022-09-03T19:02:28;4.37;;;2.67;;
2408;SDS011;8463;48.094;7.970;2022-09-03T19:08:21;5.30;;;2.60;;
2408;SDS011;8463;48.094;7.970;2022-09-03T19:11:22;2.80;;;2.47;;
2408;SDS011;8463;48.094;7.970;2022-09-03T19:14:22;2.17;;;2.00;;
2408;SDS011;8463;48.094;7.970;2022-09-03T19:20:30;2.67;;;2.47;;
2408;SDS011;8463;48.094;7.970;2022-09-03T19:23:17;3.70;;;2.33;;
2408;SDS011;8463;48.094;7.970;2022-09-03T19:26:14;2.07;;;1.87;;
2408;SDS011;8463;48.094;7.970;2022-09-03T19:29:26;3.00;;;1.70;;
2408;SDS011;8463;48.094;7.970;2022-09-03T19:32:32;2.00;;;1.80;;
2408;SDS011;8463;48.094;7.970;2022-09-03T19:35:28;3.20;;;1.70;;
2408;SDS011;8463;48.094;7.970;2022-09-03T19:39:07;2.40;;;2.20;;
2408;SDS011;8463;48.094;7.970;2022-09-03T19:51:02;2.43;;;2.23;;
2408;SDS011;8463;48.094;7.970;2022-09-03T19:53:48;2.90;;;2.20;;
2408;SDS011;8463;48.094;7.970;2022-09-03T19:56:33;2.10;;;1.90;;
2408;SDS011;8463;48.094;7.970;2022-09-03T19:59:20;2.10;;;1.93;;
2408;SDS011;8463;48.094;7.970;2022-09-03T20:02:04;2.00;;;1.77;;
2408;SDS011;8463;48.094;7.970;2022-09-03T20:04:57;2.03;;;1.70;;
2408;SDS011;8463;48.094;7.970;2022-09-03T20:07:43;1.60;;;1.50;;
2408;SDS011;8463;48.094;7.970;2022-09-03T20:10:32;1.70;;;1.60;;
2408;SDS011;8463;48.094;7.970;2022-09-03T20:15:52;1.70;;;1.60;;
2408;SDS011;8463;48.094;7.970;2022-09-03T20:18:43;4.17;;;2.60;;
2408;SDS011;8463;48.094;7.970;2022-09-03T20:29:24;3.20;;;2.30;;
2408;SDS011;8463;48.094;7.970;2022-09-03T20:32:15;3.10;;;2.03;;
2408;SDS011;8463;48.094;7.970;2022-09-03T20:37:47;2.43;;;2.17;;
2408;SDS011;8463;48.094;7.970;2022-09-03T20:40:30;2.37;;;2.17;;
2408;SDS011;8463;48.094;7.970;2022-09-03T20:56:44;2.20;;;2.10;;
2408;SDS011;8463;48.094;7.970;2022-09-03T21:04:46;2.17;;;1.97;;
2408;SDS011;8463;48.094;7.970;2022-09-03T21:07:25;4.30;;;2.40;;
2408;SDS011;8463;48.094;7.970;2022-09-03T21:10:07;2.40;;;1.70;;
2408;SDS011;8463;48.094;7.970;2022-09-03T21:15:15;1.90;;;1.80;;
2408;SDS011;8463;48.094;7.970;2022-09-03T21:20:51;2.10;;;2.00;;
2408;SDS011;8463;48.094;7.970;2022-09-03T21:23:40;2.40;;;1.80;;
2408;SDS011;8463;48.094;7.970;2022-09-03T21:28:44;2.37;;;1.90;;
2408;SDS011;8463;48.094;7.970;2022-09-03T21:31:22;2.17;;;2.03;;
2408;SDS011;8463;48.094;7.970;2022-09-03T21:33:54;2.13;;;1.93;;
2408;SDS011;8463;48.094;7.970;2022-09-03T21:36:28;2.90;;;2.40;;
2408;SDS011;8463;48.094;7.970;2022-09-03T21:39:02;1.70;;;1.60;;
2408;SDS011;8463;48.094;7.970;2022-09-03T21:41:32;1.80;;;1.60;;
2408;SDS011;8463;48.094;7.970;2022-09-03T21:47:07;2.30;;;2.10;;
2408;SDS011;8463;48.094;7.970;2022-09-03T21:49:35;2.23;;;1.83;;